createdAt,value
2023-03-27T00:00:44.509Z,93.7093
2023-03-27T00:01:46.600Z,93.5627
2023-03-27T00:02:48.813Z,93.2938
2023-03-27T00:04:52.999Z,93.7472
2023-03-27T00:05:55.038Z,93.4992
2023-03-27T00:06:57.078Z,93.3026
2023-03-27T00:07:59.239Z,93.7418
2023-03-27T00:09:01.248Z,92.7418
2023-03-27T00:10:03.415Z,92.8731
2023-03-27T00:11:05.529Z,93.2127
2023-03-27T00:12:07.629Z,92.9429
2023-03-27T00:13:09.644Z,91.4471
2023-03-27T00:14:11.696Z,92.1659
2023-03-27T00:15:13.696Z,93.0722
2023-03-27T00:16:15.857Z,93.0860
2023-03-27T00:17:17.956Z,93.1661
2023-03-27T00:18:19.982Z,93.3316
2023-03-27T00:19:22.455Z,93.9356
2023-03-27T00:20:24.818Z,93.8645
2023-03-27T00:21:26.835Z,92.6940
2023-03-27T00:22:28.878Z,92.9598
2023-03-27T00:23:30.920Z,92.9611
2023-03-27T00:24:32.925Z,93.0723
2023-03-27T00:25:35.003Z,93.2606
2023-03-27T00:26:37.088Z,93.3407
2023-03-27T00:27:39.133Z,93.8401
2023-03-27T00:28:41.192Z,93.8079
2023-03-27T00:29:43.254Z,94.4336
2023-03-27T00:30:45.284Z,94.6542
2023-03-27T00:32:49.260Z,94.3781
2023-03-27T00:33:51.285Z,94.6107
2023-03-27T00:34:53.345Z,94.7660
2023-03-27T00:35:55.357Z,94.6962
2023-03-27T00:36:57.417Z,94.8556
2023-03-27T00:37:59.408Z,95.1707
2023-03-27T00:39:01.477Z,95.2736
2023-03-27T00:41:05.435Z,95.7974
2023-03-27T00:42:07.444Z,96.0654
2023-03-27T00:43:09.500Z,95.9430
2023-03-27T00:44:11.552Z,96.0930
2023-03-27T00:45:13.591Z,95.8871
2023-03-27T00:46:15.700Z,96.2142
2023-03-27T00:47:17.895Z,96.3955
2023-03-27T00:48:19.880Z,96.4986
2023-03-27T00:50:23.853Z,96.3957
2023-03-27T00:52:27.825Z,97.1225
2023-03-27T00:53:29.915Z,96.9009
2023-03-27T00:54:31.929Z,96.7568
2023-03-27T00:55:34.022Z,96.7038
2023-03-27T00:56:36.070Z,97.0310
2023-03-27T00:57:38.102Z,97.2521
2023-03-27T00:58:40.131Z,97.1182
2023-03-27T00:59:42.207Z,97.1510
2023-03-27T01:00:44.232Z,97.3378
2023-03-27T01:01:46.335Z,97.2759
2023-03-27T01:02:48.451Z,97.3933
2023-03-27T01:03:50.642Z,97.4449
2023-03-27T01:04:52.714Z,97.3398
2023-03-27T01:05:54.771Z,97.1689
2023-03-27T01:08:01.267Z,97.5704
2023-03-27T01:08:59.405Z,97.4958
2023-03-27T01:10:01.416Z,97.1852
2023-03-27T01:12:05.412Z,96.9408
2023-03-27T01:14:09.328Z,96.9523
2023-03-27T01:15:11.402Z,96.8867
2023-03-27T01:16:13.522Z,96.8723
2023-03-27T01:18:17.502Z,96.9463
2023-03-27T01:19:19.491Z,96.9975
2023-03-27T01:20:21.570Z,96.9643
2023-03-27T01:21:23.600Z,96.9629
2023-03-27T01:22:25.707Z,96.1372
2023-03-27T01:23:35.887Z,96.2105
2023-03-27T01:24:31.289Z,96.2300
2023-03-27T01:25:33.408Z,96.0757
2023-03-27T01:26:37.020Z,96.0158
2023-03-27T01:27:39.309Z,96.0560
2023-03-27T01:28:41.390Z,96.0305
2023-03-27T01:29:43.404Z,95.8750
2023-03-27T01:30:45.494Z,95.7209
2023-03-27T01:31:47.553Z,95.9254
2023-03-27T01:32:49.609Z,95.5785
2023-03-27T01:33:51.716Z,95.6918
2023-03-27T01:35:01.574Z,95.8659
2023-03-27T01:35:57.394Z,95.7427
2023-03-27T01:36:59.487Z,95.6106
2023-03-27T01:38:01.617Z,95.6167
2023-03-27T01:39:03.687Z,95.6918
2023-03-27T01:40:05.752Z,95.7499
2023-03-27T01:41:07.840Z,95.7516
2023-03-27T01:42:09.921Z,95.8256
2023-03-27T01:43:12.017Z,96.0698
2023-03-27T01:44:14.123Z,95.8757
2023-03-27T01:45:16.144Z,95.9355
2023-03-27T01:46:18.261Z,96.0086
2023-03-27T01:47:20.298Z,95.7996
2023-03-27T01:48:22.398Z,95.7580
2023-03-27T01:50:26.390Z,96.2566
2023-03-27T01:51:28.557Z,96.4276
2023-03-27T01:52:30.593Z,96.4620
2023-03-27T01:53:32.639Z,96.5118
2023-03-27T01:54:34.810Z,96.4864
2023-03-27T01:55:36.911Z,96.4019
2023-03-27T01:56:39.022Z,96.6324
2023-03-27T01:57:49.249Z,96.4567
2023-03-27T01:58:44.633Z,96.3894
2023-03-27T01:59:46.726Z,96.6672
2023-03-27T02:01:50.719Z,95.5298
2023-03-27T02:02:52.834Z,95.7026
2023-03-27T02:03:54.882Z,95.8215
2023-03-27T02:04:57.012Z,96.3203
2023-03-27T02:05:59.102Z,96.0856
2023-03-27T02:07:01.144Z,95.8052
2023-03-27T02:08:03.257Z,95.5665
2023-03-27T02:09:05.318Z,95.3063
2023-03-27T02:10:07.436Z,94.9928
2023-03-27T02:11:09.525Z,94.9032
2023-03-27T02:12:11.631Z,94.9488
2023-03-27T02:13:13.642Z,95.1567
2023-03-27T02:14:15.750Z,95.3839
2023-03-27T02:15:23.339Z,95.0947
2023-03-27T02:16:21.522Z,94.6688
2023-03-27T02:17:23.852Z,94.6202
2023-03-27T02:18:25.927Z,94.8956
2023-03-27T02:19:28.059Z,95.0450
2023-03-27T02:20:30.089Z,95.3191
2023-03-27T02:21:32.194Z,95.2920
2023-03-27T02:22:37.426Z,95.1008
2023-03-27T02:23:35.873Z,94.9753
2023-03-27T02:25:39.954Z,94.5818
2023-03-27T02:26:41.989Z,94.5770
2023-03-27T02:27:44.153Z,94.3853
2023-03-27T02:28:46.243Z,94.2421
2023-03-27T02:29:48.366Z,94.3731
2023-03-27T02:31:05.771Z,94.1608
2023-03-27T02:31:54.018Z,94.4685
2023-03-27T02:32:56.068Z,94.3971
2023-03-27T02:33:58.154Z,93.9138
2023-03-27T02:35:00.251Z,93.9889
2023-03-27T02:36:02.311Z,94.1048
2023-03-27T02:37:04.418Z,94.0425
2023-03-27T02:38:06.446Z,94.1381
2023-03-27T02:39:08.596Z,94.0596
2023-03-27T02:40:10.709Z,93.8785
2023-03-27T02:41:12.808Z,94.1649
2023-03-27T02:42:14.922Z,94.1316
2023-03-27T02:43:16.970Z,93.7818
2023-03-27T02:45:20.970Z,93.2525
2023-03-27T02:47:24.992Z,93.4584
2023-03-27T02:48:27.074Z,93.5720
2023-03-27T02:49:29.194Z,93.6972
2023-03-27T02:50:31.310Z,93.7708
2023-03-27T02:51:33.386Z,94.1423
2023-03-27T02:52:35.496Z,93.9665
2023-03-27T02:53:37.546Z,93.9648
2023-03-27T02:54:39.656Z,93.4167
2023-03-27T02:55:41.759Z,93.8718
2023-03-27T02:56:43.880Z,93.9172
2023-03-27T02:57:51.807Z,94.0458
2023-03-27T02:58:49.588Z,94.3111
2023-03-27T02:59:51.665Z,94.3394
2023-03-27T03:00:53.783Z,93.9401
2023-03-27T03:01:55.995Z,93.8360
2023-03-27T03:02:58.098Z,93.7849
2023-03-27T03:04:00.289Z,93.7816
2023-03-27T03:05:02.456Z,94.0782
2023-03-27T03:06:04.489Z,93.5663
2023-03-27T03:07:06.601Z,93.6253
2023-03-27T03:08:08.668Z,93.9501
2023-03-27T03:09:10.792Z,93.4768
2023-03-27T03:10:12.822Z,93.6787
2023-03-27T03:11:15.097Z,93.4699
2023-03-27T03:12:17.144Z,93.6856
2023-03-27T03:13:19.270Z,93.5607
2023-03-27T03:14:21.370Z,93.7356
2023-03-27T03:15:23.507Z,93.9330
2023-03-27T03:16:25.609Z,94.0824
2023-03-27T03:17:27.661Z,93.8057
2023-03-27T03:18:29.721Z,93.7481
2023-03-27T03:19:31.830Z,93.3927
2023-03-27T03:20:33.892Z,93.4551
2023-03-27T03:21:35.969Z,93.4421
2023-03-27T03:22:38.045Z,93.5491
2023-03-27T03:23:40.094Z,93.4188
2023-03-27T03:25:44.190Z,93.6683
2023-03-27T03:26:46.211Z,93.4764
2023-03-27T03:27:48.521Z,93.7631
2023-03-27T03:29:00.367Z,93.2827
2023-03-27T03:29:54.157Z,93.8680
2023-03-27T03:30:56.668Z,93.8394
2023-03-27T03:31:59.166Z,93.5183
2023-03-27T03:33:01.515Z,93.0952
2023-03-27T03:34:03.641Z,93.9956
2023-03-27T03:35:05.782Z,93.8693
2023-03-27T03:36:07.943Z,93.1575
2023-03-27T03:38:11.968Z,92.7036
2023-03-27T03:40:15.973Z,92.4697
2023-03-27T03:41:18.089Z,92.4461
2023-03-27T03:42:22.312Z,92.5756
2023-03-27T03:43:20.772Z,92.9000
2023-03-27T03:44:22.887Z,92.2193
2023-03-27T03:45:24.953Z,92.0904
2023-03-27T03:46:27.194Z,91.7699
2023-03-27T03:47:29.238Z,91.6516
2023-03-27T03:48:31.370Z,91.4492
2023-03-27T03:49:33.526Z,91.4905
2023-03-27T03:50:35.558Z,91.8264
2023-03-27T03:51:37.666Z,92.2955
2023-03-27T03:52:39.711Z,92.7054
2023-03-27T03:54:44.966Z,92.5114
2023-03-27T03:55:44.455Z,92.9925
2023-03-27T03:56:46.636Z,92.5267
2023-03-27T03:57:48.809Z,92.4509
2023-03-27T03:58:50.954Z,92.6485
2023-03-27T03:59:52.982Z,92.6207
2023-03-27T04:00:55.310Z,92.0958
2023-03-27T04:01:57.573Z,92.5015
2023-03-27T04:02:59.863Z,92.7040
2023-03-27T04:04:01.911Z,92.8672
2023-03-27T04:05:08.697Z,92.8347
2023-03-27T04:06:07.599Z,92.8926
2023-03-27T04:07:09.731Z,92.3310
2023-03-27T04:08:11.762Z,91.8933
2023-03-27T04:09:13.879Z,92.2632
2023-03-27T04:10:16.022Z,92.8231
2023-03-27T04:15:25.797Z,92.2919
2023-03-27T04:16:27.994Z,92.6640
2023-03-27T04:17:30.191Z,92.6253
2023-03-27T04:18:32.405Z,92.6679
2023-03-27T04:19:34.813Z,92.5660
2023-03-27T04:20:36.935Z,92.1522
2023-03-27T04:21:39.030Z,91.4322
2023-03-27T04:22:41.085Z,91.4996
2023-03-27T04:23:43.194Z,91.5973
2023-03-27T04:24:45.313Z,91.5384
2023-03-27T04:25:47.395Z,91.6394
2023-03-27T04:26:49.512Z,91.6601
2023-03-27T04:27:51.612Z,92.1024
2023-03-27T04:29:55.661Z,92.1768
2023-03-27T04:30:57.986Z,92.6649
2023-03-27T04:32:00.669Z,92.1006
2023-03-27T04:33:02.850Z,92.0218
2023-03-27T04:34:04.355Z,90.8358
2023-03-27T04:35:06.462Z,91.1249
2023-03-27T04:36:08.743Z,91.5691
2023-03-27T04:37:10.891Z,91.8810
2023-03-27T04:38:12.952Z,92.2699
2023-03-27T04:39:15.130Z,91.5659
2023-03-27T04:40:17.253Z,91.5552
2023-03-27T04:41:19.355Z,91.5656
2023-03-27T04:42:21.442Z,90.7210
2023-03-27T04:43:23.542Z,90.8080
2023-03-27T04:44:25.676Z,90.9796
2023-03-27T04:45:27.733Z,90.6167
2023-03-27T04:46:29.937Z,90.8327
2023-03-27T04:47:32.028Z,91.0779
2023-03-27T04:48:34.222Z,90.9819
2023-03-27T04:49:36.390Z,91.0960
2023-03-27T04:50:38.437Z,90.9595
2023-03-27T04:51:40.534Z,90.9910
2023-03-27T04:52:42.601Z,91.1082
2023-03-27T04:54:46.882Z,91.5439
2023-03-27T04:55:48.992Z,90.8562
2023-03-27T04:56:51.122Z,90.9925
2023-03-27T04:57:53.240Z,91.1284
2023-03-27T04:58:55.318Z,91.1316
2023-03-27T04:59:57.400Z,91.5021
2023-03-27T05:00:59.767Z,91.9819
2023-03-27T05:03:04.773Z,92.5349
2023-03-27T05:05:09.265Z,92.0833
2023-03-27T05:06:11.492Z,91.6699
2023-03-27T05:07:13.902Z,91.2359
2023-03-27T05:08:16.147Z,91.1902
2023-03-27T05:09:18.302Z,91.3585
2023-03-27T05:10:21.690Z,91.5620
2023-03-27T05:11:24.325Z,91.1246
2023-03-27T05:12:26.603Z,91.3939
2023-03-27T05:13:29.049Z,91.7419
2023-03-27T05:14:31.246Z,91.8968
2023-03-27T05:15:33.441Z,92.6688
2023-03-27T05:16:35.907Z,93.1459
2023-03-27T05:17:38.198Z,93.0869
2023-03-27T05:18:41.817Z,93.3463
2023-03-27T05:19:44.332Z,93.2746
2023-03-27T05:20:46.731Z,93.3031
2023-03-27T05:21:49.256Z,93.1031
2023-03-27T05:22:51.505Z,92.2144
2023-03-27T05:23:53.794Z,92.3102
2023-03-27T05:24:56.095Z,92.0359
2023-03-27T05:26:00.676Z,91.5662
2023-03-27T05:26:58.760Z,91.9323
2023-03-27T05:28:00.949Z,91.9027
2023-03-27T05:29:03.119Z,91.7346
2023-03-27T05:30:05.279Z,91.8508
2023-03-27T05:31:07.525Z,91.3392
2023-03-27T05:32:10.243Z,91.5679
2023-03-27T05:33:12.387Z,91.7606
2023-03-27T05:35:16.592Z,91.6987
2023-03-27T05:36:18.905Z,91.7292
2023-03-27T05:37:20.978Z,91.4504
2023-03-27T05:38:23.093Z,91.0810
2023-03-27T05:39:25.260Z,91.2705
2023-03-27T05:40:27.502Z,91.0685
2023-03-27T05:41:29.823Z,91.1069
2023-03-27T05:42:31.934Z,91.0311
2023-03-27T05:45:38.019Z,90.9340
2023-03-27T05:46:40.183Z,91.1718
2023-03-27T05:47:42.301Z,90.4466
2023-03-27T05:48:44.386Z,89.6380
2023-03-27T05:49:46.496Z,90.0411
2023-03-27T05:50:48.694Z,90.4893
2023-03-27T05:51:50.751Z,90.0205
2023-03-27T05:52:52.831Z,89.8864
2023-03-27T05:53:55.017Z,89.9648
2023-03-27T05:54:57.089Z,89.8937
2023-03-27T05:56:02.841Z,89.5126
2023-03-27T05:57:00.947Z,89.1791
2023-03-27T05:58:03.066Z,89.7025
2023-03-27T05:59:05.112Z,90.0242
2023-03-27T06:00:07.219Z,89.4226
2023-03-27T06:01:09.307Z,89.1197
2023-03-27T06:02:11.423Z,88.0346
2023-03-27T06:03:13.704Z,88.4865
2023-03-27T06:04:16.068Z,87.7316
2023-03-27T06:05:18.163Z,87.7847
2023-03-27T06:06:20.321Z,87.5250
2023-03-27T06:07:22.599Z,87.5654
2023-03-27T06:08:24.919Z,87.0027
2023-03-27T06:09:26.988Z,86.0820
2023-03-27T06:10:29.119Z,85.8280
2023-03-27T06:11:31.208Z,85.3898
2023-03-27T06:12:33.426Z,85.9538
2023-03-27T06:13:35.532Z,85.4384
2023-03-27T06:14:37.637Z,85.2125
2023-03-27T06:15:39.778Z,84.8358
2023-03-27T06:16:41.885Z,85.1840
2023-03-27T06:17:44.182Z,84.7229
2023-03-27T06:18:46.176Z,83.6884
2023-03-27T06:19:48.288Z,85.1913
2023-03-27T06:20:50.376Z,85.1582
2023-03-27T06:21:52.494Z,85.5234
2023-03-27T06:23:56.498Z,85.8020
2023-03-27T06:24:58.565Z,85.3367
2023-03-27T06:26:00.680Z,84.8530
2023-03-27T06:27:02.725Z,84.4090
2023-03-27T06:28:04.923Z,84.8438
2023-03-27T06:29:08.176Z,84.5047
2023-03-27T06:30:10.981Z,84.4092
2023-03-27T06:31:13.090Z,84.5380
2023-03-27T06:32:15.183Z,83.8053
2023-03-27T06:33:17.413Z,83.7718
2023-03-27T06:34:19.506Z,83.0383
2023-03-27T06:35:21.609Z,83.0614
2023-03-27T06:37:25.627Z,82.9822
2023-03-27T06:38:27.722Z,83.3276
2023-03-27T06:39:29.791Z,83.5643
2023-03-27T06:40:31.801Z,84.0476
2023-03-27T06:41:33.861Z,82.8748
2023-03-27T06:42:35.983Z,82.0919
2023-03-27T06:43:38.076Z,81.9861
2023-03-27T06:45:42.091Z,80.3348
2023-03-27T06:46:45.958Z,80.7240
2023-03-27T06:47:54.338Z,82.0866
2023-03-27T06:49:53.803Z,80.2872
2023-03-27T06:50:56.221Z,81.3468
2023-03-27T06:51:58.506Z,80.8506
2023-03-27T06:53:00.712Z,80.5000
2023-03-27T06:54:02.805Z,79.8714
2023-03-27T06:55:04.914Z,80.0434
2023-03-27T06:56:06.980Z,78.7633
2023-03-27T06:57:09.120Z,79.6282
2023-03-27T06:58:11.152Z,80.9086
2023-03-27T07:00:15.254Z,78.3273
2023-03-27T07:01:17.301Z,79.1779
2023-03-27T07:02:19.433Z,78.7679
2023-03-27T07:03:21.550Z,77.4538
2023-03-27T07:04:23.662Z,76.8104
2023-03-27T07:05:25.741Z,76.3678
2023-03-27T07:06:27.855Z,75.9040
2023-03-27T07:07:29.925Z,75.1811
2023-03-27T07:09:33.965Z,76.1172
2023-03-27T07:10:36.031Z,75.3353
2023-03-27T07:11:38.138Z,75.5039
2023-03-27T07:12:40.214Z,75.7119
2023-03-27T07:13:42.332Z,75.4281
2023-03-27T07:14:44.498Z,75.8519
2023-03-27T07:15:46.558Z,75.7105
2023-03-27T07:16:48.689Z,76.0407
2023-03-27T07:17:50.799Z,74.8966
2023-03-27T07:18:52.930Z,71.6716
2023-03-27T07:19:54.978Z,72.7278
2023-03-27T07:20:57.240Z,72.7973
2023-03-27T07:21:59.474Z,73.0290
2023-03-27T07:23:01.610Z,73.4987
2023-03-27T07:24:03.933Z,73.5539
2023-03-27T07:25:06.288Z,73.1419
2023-03-27T07:26:08.555Z,73.3464
2023-03-27T07:27:10.862Z,73.0928
2023-03-27T07:28:13.113Z,72.9066
2023-03-27T07:29:15.455Z,72.1994
2023-03-27T07:30:17.712Z,71.8666
2023-03-27T07:31:35.151Z,71.4619
2023-03-27T07:32:36.246Z,72.0050
2023-03-27T07:34:29.757Z,73.4618
2023-03-27T07:35:32.134Z,72.6351
2023-03-27T07:36:34.426Z,72.4663
2023-03-27T07:37:38.012Z,73.1453
2023-03-27T07:38:40.617Z,74.3215
2023-03-27T07:39:42.879Z,72.1935
2023-03-27T07:40:45.195Z,73.3569
2023-03-27T07:41:47.479Z,72.6708
2023-03-27T07:42:49.752Z,71.4980
2023-03-27T07:43:52.080Z,71.3811
2023-03-27T07:44:54.335Z,70.7881
2023-03-27T07:45:56.829Z,70.0959
2023-03-27T07:49:04.458Z,68.6876
2023-03-27T07:51:13.723Z,68.2886
2023-03-27T07:52:13.771Z,70.5947
2023-03-27T07:53:33.632Z,69.1777
2023-03-27T07:54:17.039Z,68.6932
2023-03-27T07:55:19.351Z,67.1669
2023-03-27T07:56:21.633Z,67.7909
2023-03-27T07:57:23.898Z,67.3247
2023-03-27T07:58:26.416Z,66.7941
2023-03-27T07:59:28.952Z,65.9744
2023-03-27T08:00:31.382Z,67.5254
2023-03-27T08:01:33.864Z,67.6021
2023-03-27T08:02:36.222Z,69.2635
2023-03-27T08:03:38.525Z,68.9796
2023-03-27T08:05:43.025Z,69.3573
2023-03-27T08:06:45.303Z,69.5654
2023-03-27T08:08:49.751Z,69.4375
2023-03-27T08:09:52.008Z,68.4617
2023-03-27T08:10:54.341Z,68.1888
2023-03-27T08:11:56.707Z,67.9050
2023-03-27T08:12:58.974Z,68.4413
2023-03-27T08:14:01.290Z,66.7612
2023-03-27T08:15:03.576Z,67.6537
2023-03-27T08:16:05.887Z,66.9311
2023-03-27T08:17:15.746Z,66.5515
2023-03-27T08:18:12.073Z,67.3356
2023-03-27T08:19:14.380Z,67.3318
2023-03-27T08:20:16.733Z,67.6202
2023-03-27T08:21:19.051Z,68.0079
2023-03-27T08:22:21.270Z,68.3451
2023-03-27T08:23:23.557Z,69.0032
2023-03-27T08:24:25.827Z,69.1843
2023-03-27T08:25:28.104Z,69.5973
2023-03-27T08:26:30.473Z,69.2336
2023-03-27T08:27:32.769Z,69.3121
2023-03-27T08:28:34.974Z,68.4422
2023-03-27T08:29:37.264Z,68.2791
2023-03-27T08:30:39.581Z,69.2306
2023-03-27T08:31:41.856Z,68.4963
2023-03-27T08:32:44.223Z,68.8517
2023-03-27T08:33:46.566Z,69.2840
2023-03-27T08:34:48.865Z,69.0089
2023-03-27T08:35:51.215Z,69.5345
2023-03-27T08:36:53.630Z,67.7569
2023-03-27T08:37:55.944Z,67.3882
2023-03-27T08:41:02.567Z,68.6354
2023-03-27T08:42:04.913Z,67.9418
2023-03-27T08:43:07.222Z,68.3164
2023-03-27T08:44:09.475Z,69.5779
2023-03-27T08:45:11.754Z,67.9557
2023-03-27T08:50:22.603Z,68.4939
2023-03-27T08:51:24.865Z,69.7700
2023-03-27T08:52:27.172Z,67.9877
2023-03-27T08:53:29.585Z,69.2014
2023-03-27T08:54:31.898Z,68.2672
2023-03-27T08:55:34.230Z,68.3565
2023-03-27T08:56:36.559Z,69.5000
2023-03-27T08:57:38.899Z,68.7582
2023-03-27T08:58:41.241Z,68.7618
2023-03-27T08:59:43.473Z,70.3603
2023-03-27T09:00:45.775Z,68.7065
2023-03-27T09:01:48.077Z,70.3525
2023-03-27T09:02:50.432Z,69.5075
2023-03-27T09:03:52.842Z,67.2631
2023-03-27T09:04:55.126Z,67.9910
2023-03-27T09:06:59.578Z,69.3135
2023-03-27T09:08:01.950Z,70.7696
2023-03-27T09:09:04.203Z,71.9009
2023-03-27T09:11:08.692Z,69.7566
2023-03-27T09:13:13.139Z,69.7646
2023-03-27T09:14:15.501Z,70.5329
2023-03-27T09:15:17.805Z,69.3334
2023-03-27T09:16:20.151Z,69.4723
2023-03-27T09:17:22.383Z,69.9155
2023-03-27T09:18:24.664Z,70.4998
2023-03-27T09:19:26.978Z,70.4891
2023-03-27T09:20:29.272Z,68.2804
2023-03-27T09:21:31.563Z,68.7606
2023-03-27T09:22:33.895Z,67.6096
2023-03-27T09:23:36.156Z,67.0674
2023-03-27T09:24:38.420Z,67.0706
2023-03-27T09:25:40.761Z,67.4796
2023-03-27T09:26:43.063Z,67.3187
2023-03-27T09:27:45.289Z,67.2805
2023-03-27T09:28:48.981Z,67.2368
2023-03-27T09:29:51.330Z,66.6650
2023-03-27T09:30:55.125Z,67.3703
2023-03-27T09:31:57.367Z,65.3356
2023-03-27T09:32:59.731Z,65.2576
2023-03-27T09:34:02.561Z,65.5682
2023-03-27T09:35:04.911Z,65.1365
2023-03-27T09:36:07.219Z,64.2710
2023-03-27T09:37:09.512Z,66.9108
2023-03-27T09:38:11.778Z,65.6490
2023-03-27T09:39:14.111Z,65.4130
2023-03-27T09:40:16.487Z,67.0484
2023-03-27T09:41:18.795Z,65.8771
2023-03-27T09:42:21.068Z,65.1241
2023-03-27T09:43:24.542Z,65.2140
2023-03-27T09:44:27.156Z,65.1433
2023-03-27T09:45:29.478Z,64.6789
2023-03-27T09:46:31.843Z,63.3116
2023-03-27T09:47:34.144Z,63.3452
2023-03-27T09:48:36.409Z,62.9078
2023-03-27T09:49:38.736Z,64.7694
2023-03-27T09:50:41.028Z,64.2713
2023-03-27T09:51:43.383Z,63.5248
2023-03-27T09:52:45.659Z,62.8235
2023-03-27T09:53:47.946Z,61.8474
2023-03-27T09:54:50.264Z,64.0006
2023-03-27T09:55:52.591Z,60.1809
2023-03-27T09:56:54.855Z,59.4243
2023-03-27T09:57:57.193Z,60.7912
2023-03-27T09:58:59.475Z,58.8131
2023-03-27T10:00:01.754Z,58.1256
2023-03-27T10:01:04.043Z,57.7528
2023-03-27T10:03:08.672Z,60.9346
2023-03-27T10:04:10.972Z,58.4418
2023-03-27T10:05:13.256Z,58.3524
2023-03-27T10:06:15.538Z,59.0011
2023-03-27T10:07:17.859Z,61.1076
2023-03-27T10:08:20.109Z,61.6638
2023-03-27T10:09:22.403Z,60.3316
2023-03-27T10:10:24.644Z,61.5943
2023-03-27T10:11:26.937Z,61.7964
2023-03-27T10:12:29.201Z,61.3251
2023-03-27T10:13:31.501Z,61.7316
2023-03-27T10:14:33.740Z,60.3247
2023-03-27T10:15:35.995Z,60.6846
2023-03-27T10:16:38.332Z,60.9255
2023-03-27T10:18:42.757Z,57.2891
2023-03-27T10:19:44.983Z,58.6938
2023-03-27T10:20:47.319Z,59.3044
2023-03-27T10:21:49.638Z,58.4722
2023-03-27T10:22:53.352Z,58.4229
2023-03-27T10:23:52.660Z,58.8276
2023-03-27T10:24:54.912Z,54.6482
2023-03-27T10:25:57.209Z,58.3186
2023-03-27T10:26:59.449Z,56.8845
2023-03-27T10:28:01.730Z,56.1679
2023-03-27T10:29:04.004Z,57.3311
2023-03-27T10:31:08.397Z,56.8717
2023-03-27T10:32:10.708Z,56.2766
2023-03-27T10:33:13.005Z,56.6669
2023-03-27T10:34:15.271Z,57.0401
2023-03-27T10:35:17.570Z,58.5035
2023-03-27T10:37:21.954Z,56.3592
2023-03-27T10:38:24.294Z,57.1618
2023-03-27T10:39:26.525Z,57.1636
2023-03-27T10:40:28.768Z,56.0560
2023-03-27T10:41:31.072Z,55.6859
2023-03-27T10:42:33.407Z,56.4977
2023-03-27T10:43:35.668Z,57.2146
2023-03-27T10:44:37.949Z,58.5766
2023-03-27T10:46:42.333Z,57.6745
2023-03-27T10:47:44.638Z,55.7639
2023-03-27T10:48:46.916Z,55.7389
2023-03-27T10:50:51.277Z,57.3777
2023-03-27T10:51:53.518Z,56.7754
2023-03-27T10:52:55.816Z,54.0212
2023-03-27T10:53:58.196Z,53.5019
2023-03-27T10:55:00.486Z,54.7858
2023-03-27T10:56:02.848Z,55.5349
2023-03-27T10:57:05.135Z,52.7563
2023-03-27T10:58:07.452Z,53.8844
2023-03-27T10:59:09.696Z,53.0792
2023-03-27T11:01:14.086Z,54.3752
2023-03-27T11:02:16.413Z,54.5813
2023-03-27T11:03:18.719Z,54.0749
2023-03-27T11:04:21.075Z,54.2943
2023-03-27T11:05:23.312Z,53.0192
2023-03-27T11:07:27.793Z,52.2812
2023-03-27T11:08:30.054Z,47.8885
2023-03-27T11:09:32.347Z,50.9604
2023-03-27T11:10:34.670Z,50.3587
2023-03-27T11:11:36.928Z,49.9445
2023-03-27T11:12:39.221Z,49.3693
2023-03-27T11:13:41.517Z,51.5784
2023-03-27T11:14:43.740Z,48.3607
2023-03-27T11:15:46.067Z,46.9540
2023-03-27T11:16:48.352Z,48.7569
2023-03-27T11:17:50.987Z,47.5616
2023-03-27T11:18:53.268Z,48.8649
2023-03-27T11:19:55.594Z,48.1472
2023-03-27T11:20:57.922Z,47.7731
2023-03-27T11:22:00.267Z,48.7376
2023-03-27T11:23:02.548Z,46.2812
2023-03-27T11:24:04.810Z,48.7099
2023-03-27T11:25:07.123Z,46.5684
2023-03-27T11:26:09.392Z,48.6013
2023-03-27T11:27:13.302Z,48.2663
2023-03-27T11:28:12.513Z,47.3484
2023-03-27T11:29:14.737Z,44.8853
2023-03-27T11:30:16.998Z,47.1093
2023-03-27T11:31:19.336Z,48.6476
2023-03-27T11:32:21.630Z,47.6820
2023-03-27T11:33:23.896Z,45.5240
2023-03-27T11:34:29.136Z,47.4971
2023-03-27T11:35:27.377Z,47.9302
2023-03-27T11:36:29.682Z,47.9537
2023-03-27T11:37:31.968Z,48.3552
2023-03-27T11:38:34.188Z,45.3416
2023-03-27T11:39:36.530Z,46.8994
2023-03-27T11:40:38.750Z,45.5862
2023-03-27T11:41:41.028Z,46.5040
2023-03-27T11:42:43.282Z,45.8742
2023-03-27T11:45:49.837Z,47.5153
2023-03-27T11:46:52.122Z,47.7739
2023-03-27T11:49:58.680Z,46.1425
2023-03-27T11:51:00.982Z,46.8033
2023-03-27T11:52:03.219Z,47.4532
2023-03-27T11:53:05.489Z,48.2749
2023-03-27T11:54:07.802Z,49.7797
2023-03-27T11:55:10.125Z,49.9603
2023-03-27T11:56:12.387Z,47.4164
2023-03-27T11:57:14.706Z,47.8055
2023-03-27T11:58:16.941Z,49.2456
2023-03-27T11:59:19.194Z,49.1147
2023-03-27T12:00:21.498Z,46.6184
2023-03-27T12:01:23.752Z,44.9084
2023-03-27T12:02:26.081Z,45.4950
2023-03-27T12:03:28.523Z,45.6358
2023-03-27T12:04:30.871Z,45.1611
2023-03-27T12:05:33.147Z,44.7672
2023-03-27T12:06:35.387Z,43.3901
2023-03-27T12:07:40.426Z,43.7376
2023-03-27T12:08:41.949Z,44.4761
2023-03-27T12:09:44.898Z,44.8155
2023-03-27T12:10:47.152Z,44.8334
2023-03-27T12:11:49.474Z,44.6310
2023-03-27T12:12:51.753Z,45.4408
2023-03-27T12:14:00.955Z,46.6705
2023-03-27T12:14:57.700Z,45.0656
2023-03-27T12:15:59.994Z,46.4778
2023-03-27T12:17:02.382Z,46.0476
2023-03-27T12:18:04.630Z,47.8398
2023-03-27T12:19:17.366Z,45.9426
2023-03-27T12:20:10.622Z,46.6239
2023-03-27T12:23:18.747Z,47.7884
2023-03-27T12:24:20.998Z,47.6926
2023-03-27T12:26:25.487Z,48.3167
2023-03-27T12:27:27.795Z,48.2969
2023-03-27T12:28:30.046Z,46.2858
2023-03-27T12:29:32.353Z,45.6292
2023-03-27T12:30:34.666Z,46.3714
2023-03-27T12:33:42.796Z,46.1136
2023-03-27T12:34:45.038Z,44.3834
2023-03-27T12:35:47.452Z,46.9653
2023-03-27T12:36:49.723Z,47.8982
2023-03-27T12:37:52.080Z,46.2631
2023-03-27T12:38:54.366Z,46.0060
2023-03-27T12:39:56.764Z,47.1820
2023-03-27T12:40:59.138Z,44.8870
2023-03-27T12:42:01.608Z,45.6890
2023-03-27T12:43:03.882Z,45.6262
2023-03-27T12:44:06.190Z,47.2016
2023-03-27T12:45:08.481Z,45.6312
2023-03-27T12:48:15.078Z,46.9898
2023-03-27T12:49:17.356Z,47.2684
2023-03-27T12:51:21.813Z,44.3895
2023-03-27T12:52:24.124Z,45.5722
2023-03-27T12:53:26.368Z,47.7650
2023-03-27T12:54:29.644Z,45.7262
2023-03-27T12:55:32.023Z,46.3749
2023-03-27T12:56:34.421Z,45.9086
2023-03-27T12:57:36.943Z,46.1426
2023-03-27T12:58:39.364Z,45.8941
2023-03-27T12:59:41.661Z,44.7060
2023-03-27T13:00:43.938Z,46.8448
2023-03-27T13:01:52.288Z,46.6945
2023-03-27T13:02:50.202Z,47.3381
2023-03-27T13:04:54.642Z,44.6588
2023-03-27T13:05:56.930Z,42.0232
2023-03-27T13:06:59.194Z,44.4348
2023-03-27T13:08:01.458Z,41.9980
2023-03-27T13:09:03.800Z,42.0863
2023-03-27T13:12:10.377Z,42.9091
2023-03-27T13:13:12.667Z,42.7024
2023-03-27T13:14:14.929Z,42.1682
2023-03-27T13:15:17.254Z,42.2642
2023-03-27T13:16:19.632Z,41.0997
2023-03-27T13:20:28.376Z,43.8878
2023-03-27T13:21:30.712Z,44.6555
2023-03-27T13:22:37.090Z,47.1602
2023-03-27T13:23:35.277Z,45.6542
2023-03-27T13:24:37.581Z,45.9390
2023-03-27T13:25:39.854Z,44.6406
2023-03-27T13:26:42.133Z,46.0917
2023-03-27T13:27:44.479Z,44.6907
2023-03-27T13:28:47.022Z,42.8707
2023-03-27T13:29:49.288Z,42.5343
2023-03-27T13:30:51.602Z,43.4609
2023-03-27T13:31:53.918Z,42.2992
2023-03-27T13:32:56.160Z,42.7958
2023-03-27T13:33:58.465Z,42.0065
2023-03-27T13:35:00.825Z,40.2463
2023-03-27T13:36:03.128Z,36.2711
2023-03-27T13:37:06.634Z,37.4018
2023-03-27T13:38:09.680Z,35.9520
2023-03-27T13:39:11.952Z,35.7306
2023-03-27T13:40:14.218Z,39.5399
2023-03-27T13:42:18.547Z,33.7232
2023-03-27T13:43:20.795Z,35.3427
2023-03-27T13:44:23.094Z,32.8093
2023-03-27T13:45:25.336Z,36.2911
2023-03-27T13:46:27.583Z,33.2045
2023-03-27T13:47:29.819Z,34.2296
2023-03-27T13:48:31.992Z,35.2302
2023-03-27T13:49:34.188Z,35.1465
2023-03-27T13:50:36.391Z,33.8736
2023-03-27T13:51:38.646Z,33.5374
2023-03-27T13:52:40.886Z,35.9913